Hauptseite
METAR-TAF:

METAR-TAF

Flughäfen :

Berlin, Deutschland

Flughafen Berlin-Tegel

Breite: 52-34N, Länge: 013-19E, Höhe: 37 m

Beobachtung

Neuester Wetterbericht von vor 32 Minuten, um 04:50 UTC
Windstille
Temperatur -1°C
Luftfeuchtigkeit 100%
Luftdruck 1025 hPa
Sichtweite: 1400 m
feuchter Dunst, Nebelschwaden

METAR: EDDT 260450Z 00000KT 1400 R08L/0350V0650N R08R/P2000N BR BCFG NSC M01/M01 Q1025 TEMPO 0700 FZFG

Zeit: 07:22 (05:22 UTC)

Prognose

Neuester Wetterbericht von vor 38 Minuten, um 04:44 UTC
Gültige Prognose vom 26 um 04 UTC bis 26 um 24 UTC
Wind 3 kt aus unterschiedlichen Richtungen
Sichtweite: 0700 m
Gefrierender Nebel
Übergehend zu
vom 26 um 04 UTC bis 26 um 07 UTC
Sichtweite 10 km oder mehr
keine Wolken unter 1500 m und keine Kumulonimbus oder Gewitterwolken

TAF: EDDT 260444Z 2604/2624 VRB03KT 0700 FZFG NSC BECMG 2604/2607 CAVOK

Wetterbeobachtungen und Prognosen von mehr als 4000 Flughäfen (METAR und TAF Bericht).

Die verfügbaren Stationen werden durch gelbe und rote Markierungen auf der Karte dargestellt.

Führen Sie die Maus auf sie, um den Namen der Station zu sehen.

Darauf klicken, um die Beobachtung von Wetterbeobachtungen und Prognosen zu sehen.

Um die Karte zu ändern : klicken Sie auf den grünen Tasten mit einem schwarzen Kreuz Zum Vergrößern, auf den grünen Button mit einem Gedankenstrich zu verkleinern, oder auf die grünen Pfeile für benachbarte Karten.


METAR-TAF: